Latest Weather Observations for Hindmarsh Island

IDS60901

Issued at 6:51 pm CST Sunday 26 September 2021 (issued every 10 minutes, with the page automatically refreshed every 10 minutes)

About weather observations | Map of Adelaide area stations | Latest observations for Adelaide area | Other Formats
Station Details ID: 023894 Name: HINDMARSH ISLAND AWS Lat: -35.52 Lon: 138.82 Height: 11.0 m
Data from the previous 72 hours. | See also: Recent months at Hindmarsh Island
Date/Time
CST
Temp
°C
App
Temp
°C
Dew
Point
°C
Rel
Hum
%
Delta-T
°C
Wind Press
QNH
hPa
Press
MSL
hPa
Rain since
9am
mm
Dir  Spd
km/h
Gust
km/h
Spd
kts
Gust
kts
26/06:30pm 12.9 7.0 9.0 77 2.0 ESE 30 35 16 19 1020.5 1020.5 0.0
26/06:00pm 13.3 7.0 8.8 74 2.3 SE 32 39 17 21 1020.4 1020.4 0.0
26/05:30pm 13.8 7.2 8.4 70 2.7 SE 33 39 18 21 1020.4 1020.4 0.0
26/05:00pm 14.5 8.2 8.9 69 2.8 SE 32 37 17 20 1020.4 1020.4 0.0
26/04:30pm 17.7 11.9 2.5 36 6.9 E 22 28 12 15 1020.6 1020.6 0.0
26/04:00pm 17.9 12.3 3.4 38 6.7 E 22 28 12 15 1020.8 1020.8 0.0
26/03:30pm 17.9 12.9 3.4 38 6.7 E 19 26 10 14 1021.0 1021.0 0.0
26/03:00pm 18.3 13.9 4.5 40 6.6 ENE 17 30 9 16 1021.4 1021.4 0.0
26/02:30pm 17.9 13.3 3.8 39 6.6 ENE 17 24 9 13 1021.7 1021.7 0.0
26/02:00pm 18.0 13.6 4.6 41 6.4 NE 17 26 9 14 1022.2 1022.2 0.0
26/01:30pm 17.6 13.2 4.6 42 6.2 NE 17 26 9 14 1022.6 1022.6 0.0
26/01:00pm 17.0 12.1 4.3 43 6.0 NE 19 28 10 15 1023.2 1023.2 0.0
26/12:30pm 16.7 11.9 4.7 45 5.6 NE 19 32 10 17 1023.8 1023.8 0.0
26/12:00pm 16.4 11.1 5.1 47 5.3 ENE 22 35 12 19 1024.4 1024.4 0.0
26/11:30am 15.1 9.7 4.5 49 4.9 NE 22 32 12 17 1025.0 1025.0 0.0
26/11:00am 15.9 11.6 5.2 49 5.1 NE 17 28 9 15 1025.5 1025.5 0.0
26/10:30am 14.6 9.2 4.6 51 4.6 NE 22 32 12 17 1025.9 1025.9 0.0
26/10:00am 13.4 7.7 4.8 56 4.0 NNE 24 32 13 17 1026.2 1026.2 0.0
26/09:30am 12.0 6.3 4.7 61 3.3 NNE 24 32 13 17 1026.5 1026.5 0.0
26/09:00am 10.5 4.7 4.4 66 2.7 NNE 24 30 13 16 1026.7 1026.7 0.0
26/08:30am 9.4 3.0 3.4 66 2.6 NNE 26 33 14 18 1026.7 1026.7 0.0
26/08:00am 9.2 4.2 4.8 74 2.0 NNE 20 28 11 15 1026.9 1026.9 0.0
26/07:30am 8.7 4.4 5.1 78 1.6 NE 17 26 9 14 1026.8 1026.8 0.0
26/07:00am 7.7 3.8 5.2 84 1.1 NE 15 17 8 9 1026.7 1026.7 0.0
26/06:30am 6.5 2.5 4.7 88 0.8 NNE 15 19 8 10 1026.5 1026.5 0.0
26/06:00am 6.0 2.3 4.3 89 0.7 NNE 13 15 7 8 1026.2 1026.2 0.0
26/05:30am 6.1 2.4 4.6 90 0.6 N 13 15 7 8 1026.1 1026.1 0.0
26/05:00am 6.4 3.1 4.7 89 0.7 NNE 11 11 6 6 1026.0 1026.0 0.0
26/04:30am 6.0 2.3 4.2 88 0.8 NNE 13 15 7 8 1025.9 1025.9 0.0
26/04:00am 5.7 2.0 4.2 90 0.6 ENE 13 13 7 7 1025.8 1025.8 0.0
26/03:30am 6.1 2.4 4.6 90 0.6 NE 13 15 7 8 1025.9 1025.9 0.0
26/03:00am 5.7 2.0 4.2 90 0.6 ENE 13 15 7 8 1025.9 1025.9 0.0
26/02:30am 5.7 1.6 4.2 90 0.6 ENE 15 17 8 9 1025.8 1025.8 0.0
26/02:00am 6.1 1.6 4.4 89 0.7 E 17 19 9 10 1026.1 1026.1 0.0
26/01:30am 6.3 2.2 4.5 88 0.8 ENE 15 17 8 9 1026.3 1026.3 0.0
26/01:00am 6.6 2.5 4.3 85 1.0 E 15 19 8 10 1026.5 1026.5 0.0
26/12:30am 7.2 2.8 4.7 84 1.1 ENE 17 19 9 10 1026.6 1026.6 0.0
26/12:00am 8.1 3.3 4.7 79 1.5 E 19 24 10 13 1026.6 1026.6 0.0
 
Date/Time
CST
Temp
°C
App
Temp
°C
Dew
Point
°C
Rel
Hum
%
Delta-T
°C
Wind Press
QNH
hPa
Press
MSL
hPa
Rain since
9am
mm
Dir  Spd
km/h
Gust
km/h
Spd
kts
Gust
kts
25/11:30pm 8.9 5.2 4.5 74 1.9 E 13 15 7 8 1026.6 1026.6 0.0
25/11:00pm 10.2 6.6 4.8 69 2.4 E 13 20 7 11 1026.6 1026.6 0.0
25/10:30pm 11.3 6.6 5.0 65 2.9 SE 19 22 10 12 1026.5 1026.5 0.0
25/10:00pm 11.2 6.3 4.9 65 2.9 SE 20 24 11 13 1026.6 1026.6 0.0
25/09:30pm 10.9 6.4 4.4 64 2.9 SSE 17 19 9 10 1026.6 1026.6 0.0
25/09:00pm 11.2 6.2 4.7 64 2.9 SSE 20 24 11 13 1026.4 1026.4 0.0
25/08:30pm 11.3 6.3 4.7 64 3.0 SSE 20 28 11 15 1026.3 1026.3 0.0
25/08:00pm 11.6 6.0 5.5 66 2.8 SSE 24 28 13 15 1026.1 1026.1 0.0
25/07:30pm 11.5 6.9 5.6 67 2.7 SSE 19 28 10 15 1025.9 1025.9 0.0
25/07:00pm 11.7 7.0 5.3 65 2.9 SSE 19 22 10 12 1025.7 1025.7 0.0
25/06:30pm 11.4 7.2 5.5 67 2.7 SSE 17 20 9 11 1025.6 1025.6 0.0
25/06:00pm 11.4 6.6 4.8 64 3.0 SSE 19 20 10 11 1025.4 1025.4 0.0
25/05:30pm 11.9 6.9 4.6 61 3.3 S 20 24 11 13 1025.0 1025.0 0.0
25/05:00pm 12.4 7.1 5.1 61 3.4 S 22 26 12 14 1024.8 1024.8 0.0
25/04:30pm 12.7 7.8 5.1 60 3.5 S 20 28 11 15 1024.6 1024.6 0.0
25/04:00pm 12.7 6.7 5.4 61 3.4 S 26 32 14 17 1024.3 1024.3 0.0
25/03:30pm 13.2 7.1 6.8 65 3.1 SSE 28 35 15 19 1024.2 1024.2 0.0
25/03:00pm 13.6 7.2 6.9 64 3.2 S 30 37 16 20 1024.1 1024.1 0.0
25/02:30pm 13.6 7.5 5.0 56 4.0 SSE 26 32 14 17 1024.1 1024.1 0.0
25/02:00pm 13.9 8.8 5.8 58 3.8 S 22 30 12 16 1024.4 1024.4 0.0
25/01:30pm 13.1 8.3 5.8 61 3.4 S 20 26 11 14 1024.6 1024.6 0.0
25/01:00pm 12.3 10.2 6.8 69 2.6 S 7 11 4 6 1024.8 1024.8 0.0
25/12:30pm 11.5 8.3 8.5 82 1.5 SSW 15 20 8 11 1025.0 1025.0 0.0
25/12:00pm 12.8 7.7 7.5 70 2.6 SSW 24 30 13 16 1024.9 1024.9 0.0
25/11:30am 14.2 9.2 7.9 66 3.1 S 24 30 13 16 1024.7 1024.7 0.0
25/11:00am 13.4 9.4 6.5 63 3.3 SSE 17 22 9 12 1024.6 1024.6 0.0
25/10:30am 13.0 6.5 8.1 72 2.4 SSE 32 39 17 21 1024.4 1024.4 0.0
25/10:00am 12.9 8.3 6.5 65 3.1 S 20 26 11 14 1024.3 1024.3 0.0
25/09:30am 12.3 8.6 6.1 66 2.9 SSE 15 26 8 14 1024.2 1024.2 0.0
25/09:00am 11.6 6.7 7.1 74 2.1 S 22 30 12 16 1024.1 1024.1 2.4
25/08:30am 11.2 4.9 7.3 77 1.9 S 30 35 16 19 1023.6 1023.6 2.4
25/08:00am 11.9 7.4 8.7 81 1.6 SSE 22 26 12 14 1023.2 1023.2 2.4
25/07:30am 10.9 5.1 8.0 82 1.4 S 28 33 15 18 1022.8 1022.8 2.4
25/07:00am 11.3 6.0 6.8 74 2.1 S 24 30 13 16 1022.2 1022.2 2.4
25/06:30am 10.8 5.1 6.9 77 1.8 S 26 32 14 17 1021.7 1021.7 2.4
25/06:00am 10.6 4.7 7.5 81 1.5 S 28 33 15 18 1021.2 1021.2 2.4
25/05:30am 10.2 6.5 8.0 86 1.1 SSW 17 24 9 13 1021.0 1021.0 2.2
25/05:00am 9.8 4.9 8.6 92 0.6 SW 24 30 13 16 1020.9 1020.9 1.6
25/04:30am 10.2 4.5 8.5 89 0.8 S 28 32 15 17 1020.5 1020.5 0.6
25/04:00am 10.6 4.0 8.5 87 1.0 SSW 33 48 18 26 1020.0 1020.0 0.6
25/03:57am 10.9 4.7 8.0 82 1.4 SSW 30 48 16 26 1020.0 1020.0 0.6
25/03:30am 10.7 4.6 6.6 76 1.9 SSW 28 32 15 17 1020.0 1020.0 0.6
25/03:00am 10.6 3.7 7.3 80 1.6 SSW 33 39 18 21 1019.7 1019.7 0.6
25/02:30am 10.9 7.0 8.8 87 1.0 SSW 19 41 10 22 1019.7 1019.7 0.2
25/02:00am 11.0 5.7 8.6 85 1.2 SSW 26 32 14 17 1019.8 1019.8 0.2
25/01:30am 10.7 4.0 8.3 85 1.2 SSW 33 43 18 23 1019.8 1019.8 0.2
25/01:22am 10.8 5.2 8.6 86 1.1 SW 28 43 15 23 1019.5 1019.5 0.2
25/01:00am 10.5 7.4 8.9 90 0.8 WSW 15 24 8 13 1019.7 1019.7 0.2
25/12:30am 9.8 5.6 8.1 89 0.8 W 20 32 11 17 1019.9 1019.9 0.0
25/12:00am 10.2 6.2 8.1 87 1.0 W 19 24 10 13 1019.9 1019.9 0.0
 
Date/Time
CST
Temp
°C
App
Temp
°C
Dew
Point
°C
Rel
Hum
%
Delta-T
°C
Wind Press
QNH
hPa
Press
MSL
hPa
Rain since
9am
mm
Dir  Spd
km/h
Gust
km/h
Spd
kts
Gust
kts
24/11:30pm 10.8 6.1 7.9 82 1.4 W 22 28 12 15 1020.0 1020.0 0.0
24/11:00pm 10.9 6.3 8.0 82 1.4 W 22 33 12 18 1019.8 1019.8 0.0
24/10:30pm 11.2 6.4 7.3 77 1.9 W 22 33 12 18 1019.7 1019.7 0.0
24/10:00pm 11.9 6.3 7.0 72 2.3 SW 26 33 14 18 1019.4 1019.4 0.0
24/09:30pm 11.7 6.5 5.6 66 2.8 WSW 22 28 12 15 1019.3 1019.3 0.0
24/09:16pm 11.9 5.5 5.3 64 3.0 SW 28 46 15 25 1019.2 1019.2 0.0
24/09:00pm 12.0 4.1 6.3 68 2.7 SW 37 54 20 29 1018.9 1018.9 0.0
24/08:59pm 12.0 4.6 6.9 71 2.4 SW 35 54 19 29 1019.0 1019.0 0.0
24/08:30pm 12.6 6.8 6.2 65 3.0 WSW 26 35 14 19 1018.8 1018.8 0.0
24/08:18pm 12.3 6.0 5.9 65 3.0 SW 28 46 15 25 1018.8 1018.8 0.0
24/08:00pm 12.2 4.2 7.3 72 2.4 SW 39 46 21 25 1018.5 1018.5 0.0
24/07:30pm 12.4 5.5 7.1 70 2.5 SW 33 43 18 23 1018.0 1018.0 0.0
24/07:00pm 12.2 5.5 8.1 76 2.0 SW 33 43 18 23 1017.7 1017.7 0.0
24/06:30pm 12.3 4.9 8.2 76 2.0 SW 37 50 20 27 1017.3 1017.3 0.0
24/06:00pm 12.3 5.2 8.0 75 2.1 SW 35 41 19 22 1017.1 1017.1 0.0
24/05:30pm 13.1 5.4 8.6 74 2.2 SW 39 46 21 25 1016.7 1016.7 0.0
24/05:00pm 13.6 6.4 7.6 67 2.9 SW 35 46 19 25 1016.6 1016.6 0.0
24/04:30pm 14.0 6.6 8.2 68 2.9 SW 37 48 20 26 1016.1 1016.1 0.0
24/04:00pm 15.0 7.4 6.0 55 4.3 SW 35 43 19 23 1016.0 1016.0 0.0
24/03:30pm 14.9 6.6 6.2 56 4.2 SW 39 48 21 26 1015.8 1015.8 0.0
24/03:00pm 14.5 6.1 5.6 55 4.2 SW 39 48 21 26 1015.8 1015.8 0.0
24/02:30pm 14.6 6.9 6.9 60 3.7 SW 37 44 20 24 1015.9 1015.9 0.0
24/02:00pm 15.4 6.8 6.7 56 4.2 SW 41 50 22 27 1015.9 1015.9 0.0
24/01:30pm 15.5 6.7 7.3 58 4.1 SW 43 50 23 27 1015.9 1015.9 0.0
24/01:00pm 15.1 6.7 7.4 60 3.8 SW 41 50 22 27 1015.9 1015.9 0.0
24/12:30pm 16.4 8.3 6.8 53 4.7 SW 39 48 21 26 1015.9 1015.9 0.0
24/12:00pm 16.0 8.4 7.5 57 4.2 SW 37 50 20 27 1016.0 1016.0 0.0
24/11:30am 15.4 7.5 7.9 61 3.7 SW 39 48 21 26 1016.2 1016.2 0.0
24/11:00am 15.4 8.5 7.4 59 4.0 SW 33 43 18 23 1016.0 1016.0 0.0
24/10:30am 14.7 9.4 8.4 66 3.2 WSW 26 35 14 19 1016.2 1016.2 0.0
24/10:00am 14.0 7.2 7.8 66 3.1 WSW 33 44 18 24 1016.0 1016.0 0.0
24/09:30am 14.3 6.6 8.7 69 2.8 WSW 39 48 21 26 1015.8 1015.8 0.0
24/09:00am 13.1 5.7 9.9 81 1.6 WSW 39 50 21 27 1015.7 1015.7 0.0
24/08:30am 13.1 5.9 10.5 84 1.4 SW 39 48 21 26 1015.2 1015.2 0.0
24/08:24am 14.0 8.7 9.8 76 2.2 WSW 28 44 15 24 1015.2 1015.2 0.0
24/08:00am 14.1 11.0 10.3 78 2.0 W 17 24 9 13 1015.1 1015.1 0.0
24/07:30am 13.1 11.9 10.3 83 1.4 NW 7 11 4 6 1014.8 1014.8 0.0
24/07:00am 12.8 10.8 10.0 83 1.4 NNW 11 15 6 8 1014.4 1014.4 0.0
24/06:30am 12.3 9.8 9.7 84 1.3 NW 13 17 7 9 1014.2 1014.2 0.0
24/06:00am 12.3 8.9 9.3 82 1.5 NW 17 24 9 13 1013.9 1013.9 0.0
24/05:30am 12.3 8.9 9.0 80 1.7 WNW 17 20 9 11 1013.6 1013.6 0.0
24/05:00am 12.3 8.6 8.0 75 2.1 W 17 20 9 11 1013.6 1013.6 0.0
24/04:30am 12.1 9.0 7.4 73 2.3 W 13 17 7 9 1013.6 1013.6 0.0
24/04:00am 12.5 8.8 8.0 74 2.2 W 17 24 9 13 1013.5 1013.5 0.0
24/03:30am 12.4 8.6 7.5 72 2.4 WSW 17 22 9 12 1013.7 1013.7 0.0
24/03:00am 11.8 9.5 7.5 75 2.1 WSW 9 13 5 7 1013.6 1013.6 0.0
24/02:30am 10.4 8.8 8.7 89 0.8 SSE 7 9 4 5 1013.7 1013.7 0.0
24/02:00am 10.6 9.2 8.9 89 0.8 ENE 6 9 3 5 1013.4 1013.4 0.0
24/01:30am 9.0 7.1 7.5 90 0.7 ESE 7 9 4 5 1013.7 1013.7 0.0
24/01:00am 10.4 8.5 6.9 79 1.7 ENE 6 7 3 4 1014.2 1014.2 0.0
24/12:30am 9.3 7.0 7.6 89 0.8 ENE 9 11 5 6 1014.5 1014.5 0.0
24/12:00am 10.9 9.4 8.3 84 1.3 N 6 9 3 5 1015.0 1015.0 0.0
 
Date/Time
CST
Temp
°C
App
Temp
°C
Dew
Point
°C
Rel
Hum
%
Delta-T
°C
Wind Press
QNH
hPa
Press
MSL
hPa
Rain since
9am
mm
Dir  Spd
km/h
Gust
km/h
Spd
kts
Gust
kts
23/11:30pm 10.7 8.6 8.3 85 1.2 NNE 9 11 5 6 1015.3 1015.3 0.0
23/11:00pm 10.3 7.4 8.2 87 1.0 NNE 13 15 7 8 1015.9 1015.9 0.0
23/10:30pm 11.3 10.3 8.7 84 1.3 NE 4 9 2 5 1016.1 1016.1 0.0
23/10:00pm 11.0 8.5 8.1 82 1.4 N 11 13 6 7 1016.4 1016.4 0.0
23/09:30pm 11.5 10.9 7.6 77 1.9 CALM 0 7 0 4 1017.0 1017.0 0.0
23/09:00pm 12.6 12.3 8.5 76 2.0 CALM 0 0 0 0 1017.3 1017.3 0.0
23/08:30pm 12.9 11.7 9.7 81 1.6 W 6 9 3 5 1017.4 1017.4 0.0
23/08:00pm 12.9 10.8 9.7 81 1.6 WSW 11 13 6 7 1017.6 1017.6 0.0
23/07:30pm 13.3 10.4 9.7 79 1.8 SW 15 17 8 9 1017.6 1017.6 0.0
23/07:00pm 13.9 11.2 9.1 73 2.4 SW 13 20 7 11 1017.5 1017.5 0.0

Latest Capital City Observations: Canberra | Sydney | Melbourne | Brisbane | Adelaide | Perth | Hobart | Darwin

Other formats

Comma delimited format used in spreadsheet applications
http://www.bom.gov.au/fwo/IDS60901/IDS60901.94677.axf

JavaScript Object Notation format (JSON) in row-major order
http://www.bom.gov.au/fwo/IDS60901/IDS60901.94677.json

Data quality

Most of these data are generated automatically and are frequently updated. Quality checks on data are not normally performed. It is possible for incorrect values to appear. Refer to information at About Latest Weather Observations and please check the disclaimer before using these data.